createdAt,value
2022-12-17T00:00:52.351Z,-5.90
2022-12-17T00:06:05.836Z,-6.00
2022-12-17T00:08:32.672Z,-6.00
2022-12-17T00:10:59.412Z,-5.90
2022-12-17T00:13:26.225Z,-5.90
2022-12-17T00:15:53.420Z,-5.90
2022-12-17T00:18:23.761Z,-5.90
2022-12-17T00:20:59.492Z,-6.00
2022-12-17T00:23:26.264Z,-6.00
2022-12-17T00:25:54.863Z,-6.00
2022-12-17T00:28:21.797Z,-5.90
2022-12-17T00:30:55.558Z,-6.10
2022-12-17T00:33:22.326Z,-6.20
2022-12-17T00:38:41.751Z,-6.20
2022-12-17T00:43:55.242Z,-6.30
2022-12-17T00:49:09.943Z,-6.20
2022-12-17T00:51:36.680Z,-6.20
2022-12-17T00:54:03.650Z,-6.20
2022-12-17T00:56:30.380Z,-6.30
2022-12-17T00:58:57.291Z,-6.30
2022-12-17T01:01:24.048Z,-6.30
2022-12-17T01:03:50.888Z,-6.20
2022-12-17T01:06:18.899Z,-6.20
2022-12-17T01:08:45.673Z,-6.20
2022-12-17T01:11:12.459Z,-6.10
2022-12-17T01:13:39.530Z,-6.20
2022-12-17T01:16:09.471Z,-6.20
2022-12-17T01:18:36.538Z,-6.30
2022-12-17T01:21:03.396Z,-6.30
2022-12-17T01:23:30.234Z,-6.40
2022-12-17T01:25:58.091Z,-6.30
2022-12-17T01:28:25.934Z,-6.40
2022-12-17T01:30:52.767Z,-6.50
2022-12-17T01:33:19.494Z,-6.50
2022-12-17T01:35:46.287Z,-6.40
2022-12-17T01:38:18.876Z,-6.40
2022-12-17T01:40:52.081Z,-6.40
2022-12-17T01:43:35.931Z,-6.30
2022-12-17T01:46:03.141Z,-6.30
2022-12-17T01:48:44.127Z,-6.30
2022-12-17T01:51:10.941Z,-6.20
2022-12-17T01:53:43.245Z,-6.00
2022-12-17T01:56:10.861Z,-6.10
2022-12-17T01:58:38.651Z,-6.10
2022-12-17T02:01:05.715Z,-6.10
2022-12-17T02:03:32.767Z,-6.10
2022-12-17T02:06:23.234Z,-6.10
2022-12-17T02:09:19.261Z,-6.20
2022-12-17T02:12:04.673Z,-6.30
2022-12-17T02:14:51.756Z,-6.50
2022-12-17T02:17:23.669Z,-6.40
2022-12-17T02:19:50.387Z,-6.50
2022-12-17T02:23:10.797Z,-6.50
2022-12-17T02:25:51.330Z,-6.60
2022-12-17T02:28:19.187Z,-6.60
2022-12-17T02:33:13.704Z,-6.70
2022-12-17T02:38:27.972Z,-6.60
2022-12-17T02:40:54.888Z,-6.50
2022-12-17T02:43:25.472Z,-6.40
2022-12-17T02:45:52.632Z,-6.30
2022-12-17T02:48:19.933Z,-6.30
2022-12-17T02:50:47.204Z,-6.20
2022-12-17T02:53:14.159Z,-6.50
2022-12-17T02:55:40.960Z,-6.30
2022-12-17T02:58:07.781Z,-6.30
2022-12-17T03:00:34.589Z,-6.30
2022-12-17T03:03:01.447Z,-6.40
2022-12-17T03:05:44.500Z,-6.50
2022-12-17T03:08:12.286Z,-6.50
2022-12-17T03:10:39.048Z,-6.40
2022-12-17T03:13:05.797Z,-6.50
2022-12-17T03:15:32.539Z,-6.60
2022-12-17T03:17:59.303Z,-6.60
2022-12-17T03:20:26.139Z,-6.70
2022-12-17T03:22:52.915Z,-6.80
2022-12-17T03:25:19.862Z,-6.90
2022-12-17T03:27:46.615Z,-6.90
2022-12-17T03:30:13.451Z,-7.00
2022-12-17T03:32:40.246Z,-7.10
2022-12-17T03:35:07.133Z,-7.20
2022-12-17T03:37:33.887Z,-7.10
2022-12-17T03:40:00.637Z,-7.10
2022-12-17T03:42:27.422Z,-7.20
2022-12-17T03:44:54.141Z,-7.10
2022-12-17T03:47:20.926Z,-7.10
2022-12-17T03:49:47.737Z,-7.10
2022-12-17T03:52:14.471Z,-7.00
2022-12-17T03:54:41.231Z,-7.10
2022-12-17T03:57:13.035Z,-7.00
2022-12-17T03:59:42.706Z,-7.00
2022-12-17T04:02:09.665Z,-7.00
2022-12-17T04:04:36.659Z,-7.00
2022-12-17T04:07:03.391Z,-6.90
2022-12-17T04:09:30.213Z,-6.90
2022-12-17T04:11:56.935Z,-6.90
2022-12-17T04:14:23.701Z,-7.10
2022-12-17T04:16:50.509Z,-7.10
2022-12-17T04:19:17.284Z,-7.20
2022-12-17T04:24:30.692Z,-7.30
2022-12-17T04:29:44.130Z,-7.30
2022-12-17T04:34:57.552Z,-7.30
2022-12-17T04:40:12.346Z,-7.30
2022-12-17T04:45:25.743Z,-7.30
2022-12-17T04:48:09.399Z,-7.20
2022-12-17T04:50:36.140Z,-7.20
2022-12-17T04:53:05.220Z,-7.30
2022-12-17T04:55:31.940Z,-7.30
2022-12-17T04:58:06.156Z,-7.30
2022-12-17T05:03:19.642Z,-7.40
2022-12-17T05:05:46.410Z,-7.40
2022-12-17T05:08:13.165Z,-7.40
2022-12-17T05:10:39.922Z,-7.40
2022-12-17T05:13:06.707Z,-7.40
2022-12-17T05:15:33.518Z,-7.40
2022-12-17T05:18:08.069Z,-7.40
2022-12-17T05:23:06.147Z,-7.40
2022-12-17T05:25:32.868Z,-7.50
2022-12-17T05:30:52.858Z,-7.70
2022-12-17T05:33:19.697Z,-7.60
2022-12-17T05:35:46.477Z,-7.50
2022-12-17T05:38:13.236Z,-7.50
2022-12-17T05:40:39.999Z,-7.40
2022-12-17T05:43:10.923Z,-7.50
2022-12-17T05:45:38.637Z,-7.50
2022-12-17T05:48:05.409Z,-7.50
2022-12-17T05:50:32.191Z,-7.60
2022-12-17T05:53:06.181Z,-7.60
2022-12-17T05:55:32.973Z,-7.60
2022-12-17T05:58:09.049Z,-7.70
2022-12-17T06:03:04.591Z,-7.70
2022-12-17T06:05:31.391Z,-7.50
2022-12-17T06:08:08.933Z,-7.60
2022-12-17T06:10:35.648Z,-7.60
2022-12-17T06:13:02.388Z,-7.60
2022-12-17T06:15:29.182Z,-7.70
2022-12-17T06:17:56.944Z,-7.80
2022-12-17T06:20:23.676Z,-7.80
2022-12-17T06:23:01.222Z,-7.90
2022-12-17T06:25:27.941Z,-7.80
2022-12-17T06:30:57.747Z,-7.90
2022-12-17T06:33:24.547Z,-7.80
2022-12-17T06:35:53.155Z,-7.90
2022-12-17T06:38:19.918Z,-8.00
2022-12-17T06:40:47.021Z,-7.90
2022-12-17T06:43:13.762Z,-7.90
2022-12-17T06:45:40.713Z,-7.80
2022-12-17T06:50:56.516Z,-7.70
2022-12-17T06:56:09.914Z,-7.60
2022-12-17T07:01:23.859Z,-7.50
2022-12-17T07:06:37.324Z,-7.40
2022-12-17T07:11:50.797Z,-7.40
2022-12-17T07:14:17.609Z,-7.30
2022-12-17T07:16:44.380Z,-7.30
2022-12-17T07:19:11.703Z,-7.30
2022-12-17T07:21:38.446Z,-7.20
2022-12-17T07:24:05.483Z,-7.10
2022-12-17T07:26:32.309Z,-7.00
2022-12-17T07:28:59.085Z,-7.00
2022-12-17T07:34:12.470Z,-6.90
2022-12-17T07:39:25.892Z,-6.90
2022-12-17T07:44:39.264Z,-6.70
2022-12-17T07:49:52.686Z,-6.40
2022-12-17T07:52:19.448Z,-6.50
2022-12-17T07:54:46.194Z,-6.50
2022-12-17T07:57:12.942Z,-6.50
2022-12-17T07:59:39.674Z,-6.50
2022-12-17T08:02:08.944Z,-6.40
2022-12-17T08:04:37.127Z,-6.30
2022-12-17T08:07:09.341Z,-6.30
2022-12-17T08:09:37.950Z,-6.20
2022-12-17T08:12:04.796Z,-6.30
2022-12-17T08:14:31.544Z,-6.40
2022-12-17T08:16:58.425Z,-6.30
2022-12-17T08:19:25.236Z,-6.30
2022-12-17T08:21:52.218Z,-6.10
2022-12-17T08:24:19.404Z,-6.00
2022-12-17T08:26:48.378Z,-5.90
2022-12-17T08:29:15.516Z,-5.90
2022-12-17T08:31:42.300Z,-5.80
2022-12-17T08:34:09.056Z,-5.60
2022-12-17T08:36:35.798Z,-5.50
2022-12-17T08:39:02.970Z,-5.20
2022-12-17T08:41:29.764Z,-5.30
2022-12-17T08:43:56.511Z,-5.20
2022-12-17T08:46:23.331Z,-5.10
2022-12-17T08:48:50.169Z,-4.70
2022-12-17T08:51:16.895Z,-4.80
2022-12-17T08:53:43.598Z,-4.60
2022-12-17T08:56:10.335Z,-4.50
2022-12-17T08:58:37.080Z,-4.40
2022-12-17T09:01:03.973Z,-4.10
2022-12-17T09:03:30.937Z,-4.10
2022-12-17T09:05:57.717Z,-4.00
2022-12-17T09:08:24.459Z,-3.80
2022-12-17T09:10:52.024Z,-3.60
2022-12-17T09:13:18.764Z,-3.60
2022-12-17T09:15:51.990Z,-3.30
2022-12-17T09:18:20.581Z,-3.30
2022-12-17T09:20:55.308Z,-3.20
2022-12-17T09:23:22.065Z,-3.30
2022-12-17T09:25:58.266Z,-3.20
2022-12-17T09:28:25.245Z,-3.20
2022-12-17T09:30:52.076Z,-3.30
2022-12-17T09:33:19.115Z,-3.40
2022-12-17T09:35:45.929Z,-3.30
2022-12-17T09:38:13.969Z,-3.60
2022-12-17T09:43:49.707Z,-2.10
2022-12-17T09:46:35.694Z,-1.10
2022-12-17T09:49:18.744Z,-1.20
2022-12-17T09:51:45.606Z,-1.70
2022-12-17T09:57:30.760Z,-2.00
2022-12-17T09:59:57.594Z,-2.20
2022-12-17T10:02:30.289Z,-2.40
2022-12-17T10:04:58.752Z,-2.60
2022-12-17T10:10:25.210Z,-2.60
2022-12-17T10:12:52.014Z,-2.40
2022-12-17T10:15:18.774Z,-1.90
2022-12-17T10:17:45.955Z,-1.30
2022-12-17T10:20:29.595Z,-0.60
2022-12-17T10:22:56.350Z,-0.20
2022-12-17T10:28:18.581Z,0.60
2022-12-17T10:30:47.584Z,0.80
2022-12-17T10:33:21.444Z,1.20
2022-12-17T10:35:48.347Z,1.80
2022-12-17T10:38:29.771Z,1.90
2022-12-17T10:40:56.751Z,2.40
2022-12-17T10:43:30.134Z,2.70
2022-12-17T10:45:57.727Z,2.70
2022-12-17T10:50:57.477Z,3.10
2022-12-17T10:53:26.143Z,3.20
2022-12-17T10:58:50.029Z,3.20
2022-12-17T11:01:24.033Z,3.60
2022-12-17T11:06:55.150Z,3.90
2022-12-17T11:12:55.169Z,4.50
2022-12-17T11:15:51.343Z,4.20
2022-12-17T11:18:48.388Z,3.50
2022-12-17T11:21:26.399Z,3.90
2022-12-17T11:23:55.004Z,4.00
2022-12-17T11:26:23.029Z,3.50
2022-12-17T11:28:49.963Z,4.50
2022-12-17T11:31:25.822Z,4.50
2022-12-17T11:34:03.314Z,4.80
2022-12-17T11:36:50.118Z,4.50
2022-12-17T11:39:46.116Z,5.50
2022-12-17T11:42:33.126Z,5.80
2022-12-17T11:45:06.151Z,5.80
2022-12-17T11:54:02.759Z,5.30
2022-12-17T11:56:52.570Z,6.00
2022-12-17T11:59:31.084Z,6.20
2022-12-17T12:02:31.341Z,6.20
2022-12-17T12:05:16.577Z,6.40
2022-12-17T12:07:55.600Z,5.70
2022-12-17T12:10:45.440Z,6.30
2022-12-17T12:13:28.909Z,6.60
2022-12-17T12:16:01.519Z,6.40
2022-12-17T12:18:48.805Z,6.80
2022-12-17T12:21:18.595Z,6.50
2022-12-17T12:27:40.799Z,6.70
2022-12-17T12:30:19.137Z,6.40
2022-12-17T12:33:04.331Z,5.50
2022-12-17T12:35:36.697Z,5.60
2022-12-17T12:41:02.913Z,4.10
2022-12-17T12:43:34.057Z,4.00
2022-12-17T12:46:09.182Z,3.50
2022-12-17T12:48:58.637Z,3.00
2022-12-17T12:51:34.195Z,2.80
2022-12-17T12:54:20.267Z,2.60
2022-12-17T12:56:47.189Z,2.10
2022-12-17T12:59:40.181Z,2.10
2022-12-17T13:02:33.764Z,1.90
2022-12-17T13:05:01.108Z,1.40
2022-12-17T13:10:29.449Z,0.80
2022-12-17T13:12:56.627Z,0.70
2022-12-17T13:15:36.287Z,0.60
2022-12-17T13:18:24.884Z,0.50
2022-12-17T13:24:11.258Z,-0.10
2022-12-17T13:29:31.515Z,-0.50
2022-12-17T13:32:11.875Z,-0.40
2022-12-17T13:35:08.457Z,-0.60
2022-12-17T13:37:55.088Z,-0.80
2022-12-17T13:40:27.531Z,-0.90
2022-12-17T13:42:54.499Z,-1.20
2022-12-17T13:45:24.008Z,-1.20
2022-12-17T13:50:56.310Z,-1.40
2022-12-17T13:53:23.072Z,-1.50
2022-12-17T13:55:52.235Z,-1.50
2022-12-17T13:58:26.176Z,-1.60
2022-12-17T14:01:26.755Z,-1.90
2022-12-17T14:04:07.384Z,-1.70
2022-12-17T14:06:37.668Z,-1.90
2022-12-17T14:09:04.799Z,-2.00
2022-12-17T14:14:31.494Z,-2.20
2022-12-17T14:19:45.614Z,-2.30
2022-12-17T14:22:19.994Z,-2.30
2022-12-17T14:24:46.968Z,-2.40
2022-12-17T14:27:51.662Z,-2.40
2022-12-17T14:31:17.271Z,-2.60
2022-12-17T14:33:34.280Z,-2.60
2022-12-17T14:36:07.315Z,-2.70
2022-12-17T14:38:38.692Z,-2.80
2022-12-17T14:44:02.459Z,-2.80
2022-12-17T14:49:20.351Z,-2.90
2022-12-17T14:51:48.927Z,-3.00
2022-12-17T14:54:29.851Z,-3.10
2022-12-17T14:57:00.721Z,-3.20
2022-12-17T14:59:38.685Z,-3.20
2022-12-17T15:02:14.238Z,-3.20
2022-12-17T15:04:41.189Z,-3.20
2022-12-17T15:07:10.966Z,-3.30
2022-12-17T15:09:41.545Z,-3.30
2022-12-17T15:12:09.458Z,-3.30
2022-12-17T15:14:36.196Z,-3.40
2022-12-17T15:17:03.007Z,-3.40
2022-12-17T15:19:30.120Z,-3.50
2022-12-17T15:21:56.923Z,-3.50
2022-12-17T15:24:23.638Z,-3.50
2022-12-17T15:26:50.496Z,-3.60
2022-12-17T15:29:17.293Z,-3.60
2022-12-17T15:31:44.122Z,-3.60
2022-12-17T15:34:12.058Z,-3.70
2022-12-17T15:36:39.096Z,-3.70
2022-12-17T15:39:06.805Z,-3.70
2022-12-17T15:44:20.448Z,-3.70
2022-12-17T15:46:47.270Z,-3.70
2022-12-17T15:49:14.221Z,-3.70
2022-12-17T15:51:40.974Z,-3.70
2022-12-17T15:54:07.770Z,-3.70
2022-12-17T15:56:34.481Z,-3.70
2022-12-17T15:59:01.220Z,-3.70
2022-12-17T16:01:28.168Z,-3.70
2022-12-17T16:03:55.026Z,-3.70
2022-12-17T16:06:21.850Z,-3.70
2022-12-17T16:08:48.591Z,-3.70
2022-12-17T16:14:02.262Z,-3.70
2022-12-17T16:19:17.308Z,-3.80
2022-12-17T16:21:46.932Z,-3.90
2022-12-17T16:24:14.182Z,-3.90
2022-12-17T16:26:41.103Z,-3.90
2022-12-17T16:29:07.911Z,-3.90
2022-12-17T16:31:35.341Z,-3.90
2022-12-17T16:34:02.149Z,-4.00
2022-12-17T16:36:28.979Z,-3.90
2022-12-17T16:41:43.361Z,-4.00
2022-12-17T16:44:10.171Z,-4.00
2022-12-17T16:46:39.927Z,-4.10
2022-12-17T16:49:09.311Z,-4.10
2022-12-17T16:51:36.167Z,-4.10
2022-12-17T16:54:07.831Z,-4.10
2022-12-17T16:56:39.685Z,-4.10
2022-12-17T16:59:07.397Z,-4.10
2022-12-17T17:01:35.390Z,-4.10
2022-12-17T17:04:03.301Z,-4.20
2022-12-17T17:09:17.864Z,-4.20
2022-12-17T17:11:49.636Z,-4.20
2022-12-17T17:14:18.660Z,-4.30
2022-12-17T17:16:45.613Z,-4.30
2022-12-17T17:19:12.406Z,-4.30
2022-12-17T17:21:41.811Z,-4.40
2022-12-17T17:24:20.079Z,-4.50
2022-12-17T17:26:47.954Z,-4.50
2022-12-17T17:37:15.178Z,-4.50
2022-12-17T17:39:42.270Z,-4.60
2022-12-17T17:42:09.145Z,-4.70
2022-12-17T17:44:35.989Z,-4.70
2022-12-17T17:47:02.888Z,-4.70
2022-12-17T17:49:29.801Z,-4.70
2022-12-17T17:52:12.290Z,-4.80
2022-12-17T17:54:39.938Z,-4.90
2022-12-17T17:57:06.939Z,-4.90
2022-12-17T17:59:34.506Z,-5.00
2022-12-17T18:02:02.742Z,-5.00
2022-12-17T18:04:30.205Z,-5.00
2022-12-17T18:09:44.138Z,-5.20
2022-12-17T18:12:11.252Z,-5.20
2022-12-17T18:14:46.642Z,-5.20
2022-12-17T18:17:19.223Z,-5.30
2022-12-17T18:19:45.970Z,-5.30
2022-12-17T18:22:12.734Z,-5.20
2022-12-17T18:24:39.473Z,-5.30
2022-12-17T18:27:06.212Z,-5.30
2022-12-17T18:29:33.117Z,-5.30
2022-12-17T18:31:59.961Z,-5.40
2022-12-17T18:34:26.905Z,-5.40
2022-12-17T18:36:54.026Z,-5.50
2022-12-17T18:39:23.260Z,-5.50
2022-12-17T18:41:51.635Z,-5.50
2022-12-17T18:44:19.366Z,-5.40
2022-12-17T18:46:46.681Z,-5.50
2022-12-17T18:49:15.693Z,-5.50
2022-12-17T18:51:44.475Z,-5.60
2022-12-17T18:54:17.093Z,-5.60
2022-12-17T18:59:30.995Z,-5.70
2022-12-17T19:01:58.743Z,-5.80
2022-12-17T19:04:26.471Z,-5.80
2022-12-17T19:06:54.015Z,-5.90
2022-12-17T19:09:26.914Z,-6.00
2022-12-17T19:14:22.409Z,-6.00
2022-12-17T19:16:50.926Z,-6.10
2022-12-17T19:22:05.217Z,-6.10
2022-12-17T19:24:31.967Z,-6.00
2022-12-17T19:26:58.717Z,-6.10
2022-12-17T19:29:25.512Z,-6.10
2022-12-17T19:31:52.308Z,-6.20
2022-12-17T19:34:19.723Z,-6.20
2022-12-17T19:36:47.101Z,-6.20
2022-12-17T19:39:19.320Z,-6.10
2022-12-17T19:41:46.273Z,-6.20
2022-12-17T19:44:15.557Z,-6.20
2022-12-17T19:46:43.308Z,-6.20
2022-12-17T19:49:15.136Z,-6.20
2022-12-17T19:51:42.313Z,-6.20
2022-12-17T19:54:09.586Z,-6.20
2022-12-17T19:56:36.566Z,-6.20
2022-12-17T19:59:06.342Z,-6.20
2022-12-17T20:01:35.463Z,-6.10
2022-12-17T20:04:02.643Z,-6.20
2022-12-17T20:06:32.231Z,-6.20
2022-12-17T20:08:59.531Z,-6.10
2022-12-17T20:11:27.307Z,-6.10
2022-12-17T20:14:06.062Z,-6.00
2022-12-17T20:16:37.114Z,-6.00
2022-12-17T20:19:05.931Z,-6.00
2022-12-17T20:21:32.947Z,-5.90
2022-12-17T20:23:59.720Z,-5.90
2022-12-17T20:26:26.810Z,-5.90
2022-12-17T20:28:55.161Z,-5.90
2022-12-17T20:31:22.327Z,-6.00
2022-12-17T20:33:49.564Z,-5.90
2022-12-17T20:36:22.000Z,-5.90
2022-12-17T20:38:49.255Z,-5.90
2022-12-17T20:41:17.438Z,-5.90
2022-12-17T20:43:44.903Z,-5.80
2022-12-17T20:46:12.726Z,-5.80
2022-12-17T20:48:42.003Z,-5.80
2022-12-17T20:51:13.074Z,-5.90
2022-12-17T20:53:40.275Z,-5.80
2022-12-17T20:56:10.120Z,-5.80
2022-12-17T20:58:38.384Z,-5.80
2022-12-17T21:01:14.237Z,-5.60
2022-12-17T21:03:42.008Z,-5.80
2022-12-17T21:08:49.381Z,-5.80
2022-12-17T21:11:22.660Z,-5.80
2022-12-17T21:13:49.825Z,-5.80
2022-12-17T21:16:25.174Z,-5.70
2022-12-17T21:18:52.610Z,-5.70
2022-12-17T21:24:10.956Z,-5.70
2022-12-17T21:29:28.765Z,-5.70
2022-12-17T21:31:55.872Z,-5.60
2022-12-17T21:34:23.721Z,-5.70
2022-12-17T21:36:52.017Z,-5.60
2022-12-17T21:39:20.004Z,-5.60
2022-12-17T21:41:49.075Z,-5.60
2022-12-17T21:44:15.890Z,-5.60
2022-12-17T21:46:43.369Z,-5.60
2022-12-17T21:49:11.123Z,-5.60
2022-12-17T21:51:38.160Z,-5.60
2022-12-17T21:54:09.035Z,-5.60
2022-12-17T21:59:23.738Z,-5.60
2022-12-17T22:04:37.476Z,-5.60
2022-12-17T22:07:10.328Z,-5.60
2022-12-17T22:09:53.523Z,-5.60
2022-12-17T22:12:33.898Z,-5.60
2022-12-17T22:15:00.701Z,-5.50
2022-12-17T22:17:28.320Z,-5.60
2022-12-17T22:19:55.117Z,-5.60
2022-12-17T22:22:21.874Z,-5.60
2022-12-17T22:24:48.642Z,-5.60
2022-12-17T22:27:15.549Z,-5.60
2022-12-17T22:32:11.739Z,-5.50
2022-12-17T22:35:15.779Z,-5.50
2022-12-17T22:39:30.545Z,-5.60
2022-12-17T22:44:29.615Z,-5.50
2022-12-17T22:44:37.449Z,-5.60
2022-12-17T22:45:48.293Z,-5.60
2022-12-17T22:48:15.141Z,-5.60
2022-12-17T22:51:03.404Z,-5.60
2022-12-17T22:53:29.556Z,-5.60
2022-12-17T22:56:15.840Z,-5.70
2022-12-17T23:01:36.027Z,-5.60
2022-12-17T23:06:49.899Z,-5.70
2022-12-17T23:12:06.369Z,-5.70
2022-12-17T23:14:33.518Z,-5.70
2022-12-17T23:17:01.880Z,-5.70
2022-12-17T23:19:29.360Z,-5.80
2022-12-17T23:21:56.328Z,-5.70
2022-12-17T23:24:23.577Z,-5.70
2022-12-17T23:26:50.701Z,-5.80
2022-12-17T23:29:19.752Z,-5.80
2022-12-17T23:31:47.629Z,-5.80
2022-12-17T23:34:15.412Z,-5.90
2022-12-17T23:36:42.356Z,-5.90
2022-12-17T23:41:56.254Z,-5.90
2022-12-17T23:47:09.994Z,-5.90
2022-12-17T23:49:36.814Z,-5.90
2022-12-17T23:52:03.594Z,-5.90
2022-12-17T23:54:30.341Z,-5.90
2022-12-17T23:56:57.200Z,-5.90
2022-12-17T23:59:24.094Z,-5.90
